Terminal Aerodrome Forecast
Issued by NWS

Home | Current Version | Previous Version | Text Only | Print | Product List | Glossary On
Versions: 1 2 3 4 5 6 7 8 9 10 11 12 13 14 15 16 17 18 19 20 21 22 23 24
000
FTUS46 KOTX 231739
TAFSFF
TAF
KSFF 231739Z 2318/2418 VRB06KT P6SM SKC
     FM232200 22007KT P6SM BKN080 OVC120
     FM240100 21008KT 1 1/2SM -SN BR SCT012 OVC019
     FM240600 20006KT P6SM VCSH OVC016
     FM241100 22007KT 4SM -SHSN BR SCT007 OVC012
      TEMPO 2414/2417 3/4SM -SN=

USA.gov is the U.S. government's official web portal to all federal, state and local government web resources and services.